Strait Of Dover, United Kingdom
Current Conditions -  °F | °C
As of 7:30 AM on Monday 22 Dec 2014 (Local Time) from LFAT Reporting Station
Overcast Overcast  
Wind Chill: 52°   Ceiling: 900
Heat Index: 52°   Visibility: 6mi
Dew Point: 48°   Wind: 16mph
Humidity: 88%   Direction: 210°SSW
Pressure: 30.18"   Gusts: 29mph
Location:  51°N, 1.42°E
Report Text: LFAT 220730Z AUTO 21014G25KT 180V240 9999 OVC009 11/09 Q1022
Loading
Personal Weather Stations






























Interactive Weather Map New forecast layout! Learn more

10-Day Weather Forecast

Advertisements
Track Severe Weather on mobile